Time;durP1;ratioP1;P1;durP2;ratioP2;P2;SDS_P1;SDS_P2;PMS_P1;PMS_P2;Temp;Humidity;BMP_temperature;BMP_pressure;BME280_temperature;BME280_humidity;BME280_pressure;Samples;Min_cycle;Max_cycle;Signal;HPM_P1;HPM_P2
2023/12/12 00:01:42;;;;;;;8.60;2.57;;;;;;;-145.69;65.37;52315.66;4930143;29;20212;-79
2023/12/12 00:04:09;;;;;;;6.50;2.53;;;;;;;-145.69;65.70;52297.84;4916719;29;20239;-80
2023/12/12 00:06:37;;;;;;;5.10;1.90;;;;;;;-145.69;65.18;52309.72;4925734;29;20195;-80
2023/12/12 00:09:03;;;;;;;8.73;2.03;;;;;;;-145.69;64.66;52301.81;4935698;29;20227;-80
2023/12/12 00:11:30;;;;;;;8.13;1.87;;;;;;;-145.69;65.64;52323.59;4936002;29;20207;-79
2023/12/12 00:13:56;;;;;;;6.60;1.80;;;;;;;-145.69;64.96;52333.47;4935764;29;20203;-79
2023/12/12 00:16:22;;;;;;;5.90;1.70;;;;;;;-145.69;65.23;52305.75;4935170;29;20694;-80
2023/12/12 00:18:49;;;;;;;8.20;2.00;;;;;;;-145.69;66.11;52337.44;4929319;29;20212;-81
2023/12/12 00:21:15;;;;;;;6.37;1.80;;;;;;;-145.69;65.42;52329.53;4916952;29;20215;-81
2023/12/12 00:23:43;;;;;;;3.83;1.73;;;;;;;-145.69;64.76;52317.66;4916831;29;20208;-80
2023/12/12 00:26:12;;;;;;;4.80;1.93;;;;;;;-145.69;65.42;52301.81;4921915;29;20207;-79
2023/12/12 00:28:39;;;;;;;9.67;2.27;;;;;;;-145.69;65.43;52323.59;4935537;29;20207;-79
2023/12/12 00:31:06;;;;;;;5.87;1.80;;;;;;;-145.69;65.42;52321.59;4932393;29;20206;-78
2023/12/12 00:33:32;;;;;;;6.70;1.77;;;;;;;-145.69;65.56;52337.44;4934818;29;20591;-78
2023/12/12 00:36:00;;;;;;;5.87;1.80;;;;;;;-145.69;66.34;52315.66;4934337;29;20200;-79
2023/12/12 00:38:29;;;;;;;7.63;1.70;;;;;;;-145.69;65.76;52305.75;4934068;29;20255;-81
2023/12/12 00:40:57;;;;;;;4.77;1.90;;;;;;;-145.69;66.63;52355.28;4935648;29;20204;-79
2023/12/12 00:43:24;;;;;;;6.57;1.70;;;;;;;-145.69;66.65;52339.44;4935238;29;20214;-81
2023/12/12 00:45:51;;;;;;;10.30;1.70;;;;;;;-145.69;66.60;52353.28;4935494;29;20204;-80
2023/12/12 00:48:18;;;;;;;6.60;1.50;;;;;;;-145.69;66.87;52313.69;4935467;29;20682;-80
2023/12/12 00:50:44;;;;;;;6.80;1.63;;;;;;;-145.69;67.26;52333.47;4935639;29;20203;-80
2023/12/12 00:53:11;;;;;;;7.40;1.90;;;;;;;-145.69;66.31;52305.75;4925915;29;20231;-80
2023/12/12 00:55:37;;;;;;;5.80;1.70;;;;;;;-145.69;66.46;52327.53;4929408;29;20215;-81
2023/12/12 00:58:05;;;;;;;7.53;1.73;;;;;;;-145.69;66.56;52319.63;4935526;29;20234;-81
2023/12/12 01:00:31;;;;;;;11.53;1.90;;;;;;;-145.69;66.85;52315.66;4939167;29;20207;-78
2023/12/12 01:02:58;;;;;;;6.03;2.20;;;;;;;-145.69;66.21;52333.47;4939013;29;20192;-81
2023/12/12 01:05:24;;;;;;;4.33;1.87;;;;;;;-145.69;66.60;52345.38;4939115;29;20591;-81
2023/12/12 01:07:51;;;;;;;4.93;1.70;;;;;;;-145.69;66.63;52373.09;4919966;29;20236;-80
2023/12/12 01:10:17;;;;;;;9.57;1.53;;;;;;;-145.69;66.23;52325.56;4920292;29;20214;-81
2023/12/12 01:12:44;;;;;;;7.53;1.70;;;;;;;-145.69;66.43;52327.53;4922376;29;20204;-80
2023/12/12 01:15:12;;;;;;;2.03;1.40;;;;;;;-145.69;66.54;52325.56;4939021;29;20662;-80
2023/12/12 01:17:38;;;;;;;8.07;1.67;;;;;;;-145.69;66.06;52315.66;4938932;29;20242;-80
2023/12/12 01:20:07;;;;;;;6.87;1.73;;;;;;;-145.69;66.66;52339.44;4938910;29;20204;-80
2023/12/12 01:22:34;;;;;;;8.10;1.27;;;;;;;-145.69;66.60;52297.84;4938681;29;20204;-80
2023/12/12 01:25:00;;;;;;;4.13;1.73;;;;;;;-145.69;66.38;52351.31;4938480;29;20208;-82
2023/12/12 01:27:27;;;;;;;6.80;1.60;;;;;;;-145.69;66.26;52297.84;4926930;29;20208;-81
2023/12/12 01:29:54;;;;;;;6.27;1.50;;;;;;;-145.69;66.50;52317.66;4919798;29;20204;-81
2023/12/12 01:32:22;;;;;;;5.80;1.63;;;;;;;-145.69;66.18;52353.28;4919513;29;20211;-80
2023/12/12 01:34:48;;;;;;;7.17;1.90;;;;;;;-145.69;66.18;52319.63;4938182;29;20200;-80
2023/12/12 01:37:15;;;;;;;7.00;1.50;;;;;;;-145.69;66.08;52327.53;4938248;29;20242;-79
2023/12/12 01:39:41;;;;;;;5.70;1.57;;;;;;;-145.69;66.71;52293.88;4938135;29;20199;-80
2023/12/12 01:42:08;;;;;;;5.77;1.53;;;;;;;-145.69;66.23;52355.28;4938713;29;20212;-80
2023/12/12 01:44:34;;;;;;;4.77;1.50;;;;;;;-145.69;65.80;52317.66;4938117;29;20208;-81
2023/12/12 01:47:01;;;;;;;7.43;1.60;;;;;;;-145.69;66.56;52315.66;4938275;29;20203;-80
2023/12/12 01:49:29;;;;;;;3.33;1.73;;;;;;;-145.69;66.73;52315.66;4938163;29;20203;-81
2023/12/12 01:51:56;;;;;;;5.97;1.27;;;;;;;-145.69;66.08;52323.59;4938318;29;20212;-81
2023/12/12 01:54:22;;;;;;;6.33;1.57;;;;;;;-145.69;66.42;52313.69;4937942;29;20662;-80
2023/12/12 01:56:52;;;;;;;2.73;1.93;;;;;;;-145.69;66.38;52313.69;4938281;29;20231;-79
2023/12/12 01:59:22;;;;;;;6.33;1.83;;;;;;;-145.69;66.35;52317.66;4938393;29;20227;-81
2023/12/12 02:01:49;;;;;;;6.23;1.80;;;;;;;-145.69;66.52;52309.72;4923317;29;20216;-81
2023/12/12 02:04:17;;;;;;;8.47;3.17;;;;;;;-145.69;65.66;52317.66;4932332;29;20288;-81
2023/12/12 02:06:47;;;;;;;4.33;1.47;;;;;;;-145.69;65.66;52307.75;4938008;29;20215;-80
2023/12/12 02:09:15;;;;;;;7.43;1.70;;;;;;;-145.69;65.65;52337.44;4937795;29;20317;-81
2023/12/12 02:11:41;;;;;;;2.97;1.60;;;;;;;-145.69;65.77;52299.81;4920838;29;20203;-80
2023/12/12 02:14:09;;;;;;;4.90;1.40;;;;;;;-145.69;66.03;52313.69;4937576;29;20206;-80
2023/12/12 02:16:36;;;;;;;3.47;1.17;;;;;;;-145.69;65.83;52333.47;4937919;29;20227;-81
2023/12/12 02:19:02;;;;;;;5.77;1.87;;;;;;;-145.69;66.80;52345.38;4921675;29;20208;-81
2023/12/12 02:21:30;;;;;;;4.20;1.40;;;;;;;-145.69;66.33;52309.72;4924018;29;20800;-80
2023/12/12 02:23:57;;;;;;;6.23;1.80;;;;;;;-145.69;65.78;52313.69;4937332;29;20667;-81
2023/12/12 02:26:23;;;;;;;2.27;1.50;;;;;;;-145.69;66.02;52313.69;4937691;29;20207;-81
2023/12/12 02:28:50;;;;;;;4.50;1.63;;;;;;;-145.69;66.31;52297.84;4937726;29;20408;-80
2023/12/12 02:31:17;;;;;;;3.40;1.37;;;;;;;-145.69;66.51;52317.66;4937464;29;20203;-80
2023/12/12 02:33:43;;;;;;;2.43;1.43;;;;;;;-145.69;67.00;52305.75;4937645;29;20203;-80
2023/12/12 02:36:10;;;;;;;2.10;1.17;;;;;;;-145.69;66.73;52325.56;4923355;29;20218;-80
2023/12/12 02:38:38;;;;;;;2.37;1.30;;;;;;;-145.69;66.33;52301.81;4937543;29;20234;-80
2023/12/12 02:41:04;;;;;;;2.10;1.30;;;;;;;-145.69;66.29;52309.72;4937101;29;20204;-80
2023/12/12 02:43:31;;;;;;;4.23;1.40;;;;;;;-145.69;66.63;52333.47;4937045;29;20208;-80
2023/12/12 02:45:57;;;;;;;1.43;1.20;;;;;;;-145.69;65.96;52345.38;4937483;29;20558;-80
2023/12/12 02:48:24;;;;;;;1.47;1.30;;;;;;;-145.69;66.25;52337.44;4937309;29;20211;-81
2023/12/12 02:50:50;;;;;;;2.50;1.70;;;;;;;-145.69;66.36;52337.44;4936903;29;20199;-81
2023/12/12 02:53:16;;;;;;;3.33;1.23;;;;;;;-145.69;66.21;52321.59;4919228;29;20212;-82
2023/12/12 02:55:44;;;;;;;3.13;1.77;;;;;;;-145.69;66.11;52321.59;4918197;29;20219;-82
2023/12/12 02:58:11;;;;;;;3.60;1.33;;;;;;;-145.69;66.18;52313.69;4918152;29;20236;-82
2023/12/12 03:00:37;;;;;;;2.83;1.33;;;;;;;-145.69;65.98;52307.75;4925845;29;20204;-80
2023/12/12 03:03:04;;;;;;;2.10;1.30;;;;;;;-145.69;66.83;52313.69;4937007;29;20207;-80
2023/12/12 03:05:31;;;;;;;2.40;1.27;;;;;;;-145.69;66.76;52321.59;4936746;29;20215;-80
2023/12/12 03:07:57;;;;;;;5.93;1.20;;;;;;;-145.69;66.35;52299.81;4936421;29;20706;-80
2023/12/12 03:10:24;;;;;;;1.77;1.10;;;;;;;-145.69;66.66;52337.44;4923604;29;20300;-80
2023/12/12 03:12:51;;;;;;;3.50;1.33;;;;;;;-145.69;66.80;52307.75;4936777;29;20219;-80
2023/12/12 03:15:18;;;;;;;2.03;1.30;;;;;;;-145.69;66.75;52313.69;4936710;29;20203;-80
2023/12/12 03:17:44;;;;;;;2.60;1.30;;;;;;;-145.69;66.05;52317.66;4936458;29;20223;-80
2023/12/12 03:20:11;;;;;;;4.67;1.47;;;;;;;-145.69;66.14;52301.81;4936464;29;20234;-80
2023/12/12 03:22:38;;;;;;;2.03;1.57;;;;;;;-145.69;66.79;52321.59;4935543;29;20211;-81
2023/12/12 03:25:05;;;;;;;2.37;1.20;;;;;;;-145.69;66.75;52309.72;4936019;29;20586;-80
2023/12/12 03:27:32;;;;;;;5.90;1.70;;;;;;;-145.69;67.04;52303.78;4917322;29;20212;-81
2023/12/12 03:30:00;;;;;;;1.47;1.30;;;;;;;-145.69;67.01;52309.72;4929772;29;20200;-80
2023/12/12 03:32:26;;;;;;;2.40;1.20;;;;;;;-145.69;66.97;52299.81;4936356;29;20651;-80
2023/12/12 03:34:53;;;;;;;1.63;1.00;;;;;;;-145.69;66.68;52301.81;4936511;29;20215;-79
2023/12/12 03:37:19;;;;;;;1.73;1.30;;;;;;;-145.69;66.80;52297.84;4936135;29;20234;-80
2023/12/12 03:39:46;;;;;;;1.40;1.03;;;;;;;-145.69;66.50;52307.75;4936321;29;20227;-80
2023/12/12 03:42:12;;;;;;;2.63;1.27;;;;;;;-145.69;65.26;52305.75;4934741;29;20211;-80
2023/12/12 03:44:39;;;;;;;3.03;1.43;;;;;;;-145.69;64.54;52285.97;4917489;29;20575;-80
2023/12/12 03:47:06;;;;;;;2.20;1.10;;;;;;;-145.69;66.41;52323.59;4917352;29;20204;-81
2023/12/12 03:49:33;;;;;;;2.67;1.30;;;;;;;-145.69;65.45;52285.97;4925991;29;20199;-81
2023/12/12 03:51:59;;;;;;;3.77;1.47;;;;;;;-145.69;66.22;52282.00;4935830;29;20207;-82
2023/12/12 03:54:26;;;;;;;1.50;1.10;;;;;;;-145.69;66.25;52305.75;4936097;29;20207;-82
2023/12/12 03:56:52;;;;;;;3.80;1.03;;;;;;;-145.69;66.82;52295.84;4934609;29;20208;-81
2023/12/12 03:59:19;;;;;;;1.20;1.10;;;;;;;-145.69;67.05;52317.66;4932616;29;20207;-81
2023/12/12 04:01:49;;;;;;;1.77;1.40;;;;;;;-145.69;66.84;52289.91;4918594;29;20218;-81
2023/12/12 04:04:18;;;;;;;4.77;1.40;;;;;;;-145.69;67.03;52289.91;4936437;29;20212;-81
2023/12/12 04:06:46;;;;;;;1.27;1.17;;;;;;;-145.69;67.21;52305.75;4936034;29;20230;-80
2023/12/12 04:09:12;;;;;;;2.33;1.50;;;;;;;-145.69;66.53;52287.94;4935315;29;20719;-81
2023/12/12 04:11:39;;;;;;;2.40;1.33;;;;;;;-145.69;66.04;52287.94;4935867;29;20655;-81
2023/12/12 04:14:05;;;;;;;6.27;1.20;;;;;;;-145.69;66.53;52289.91;4935722;29;20226;-81
2023/12/12 04:16:32;;;;;;;1.20;1.10;;;;;;;-145.69;66.62;52289.91;4931706;29;20212;-81
2023/12/12 04:18:58;;;;;;;3.50;1.37;;;;;;;-145.69;66.63;52331.50;4919986;29;20254;-80
2023/12/12 04:21:26;;;;;;;1.33;0.90;;;;;;;-145.69;66.88;52297.84;4932576;29;20207;-81
2023/12/12 04:23:52;;;;;;;2.50;1.40;;;;;;;-145.69;66.88;52307.75;4935724;29;20658;-81
2023/12/12 04:26:19;;;;;;;3.00;1.20;;;;;;;-145.69;67.05;52321.59;4935362;29;20208;-81
2023/12/12 04:28:45;;;;;;;2.80;1.30;;;;;;;-145.69;66.77;52293.88;4935338;29;20199;-81
2023/12/12 04:31:15;;;;;;;2.30;1.20;;;;;;;-145.69;67.88;52333.47;4934746;29;20449;-81
2023/12/12 04:33:42;;;;;;;5.53;1.53;;;;;;;-145.69;66.75;52305.75;4934732;29;20215;-81
2023/12/12 04:36:09;;;;;;;1.63;1.40;;;;;;;-145.69;67.41;52301.81;4935746;29;20571;-80
2023/12/12 04:38:37;;;;;;;2.43;1.20;;;;;;;-145.69;68.18;52319.63;4935427;29;20715;-81
2023/12/12 04:41:04;;;;;;;1.53;1.10;;;;;;;-145.69;67.86;52299.81;4916659;29;20681;-82
2023/12/12 04:43:31;;;;;;;2.40;1.20;;;;;;;-145.69;68.00;52305.75;4930587;29;20237;-82
2023/12/12 04:45:57;;;;;;;2.53;1.20;;;;;;;-145.69;67.16;52276.06;4935511;29;20210;-81
2023/12/12 04:48:24;;;;;;;1.33;1.23;;;;;;;-145.69;67.45;52305.75;4935205;29;20199;-81
2023/12/12 04:50:50;;;;;;;2.10;1.30;;;;;;;-145.69;67.33;52329.53;4928759;29;20208;-81
2023/12/12 04:53:17;;;;;;;1.73;1.40;;;;;;;-145.69;67.34;52287.94;4920908;29;20207;-81
2023/12/12 04:55:45;;;;;;;2.30;1.63;;;;;;;-145.69;67.02;52337.44;4935267;29;20208;-81
2023/12/12 04:58:12;;;;;;;1.23;1.13;;;;;;;-145.69;66.82;52303.78;4935351;29;20227;-81
2023/12/12 05:00:38;;;;;;;1.47;1.10;;;;;;;-145.69;66.77;52283.97;4933493;29;20207;-80
2023/12/12 05:03:05;;;;;;;3.03;1.20;;;;;;;-145.69;67.32;52303.78;4935464;29;20222;-81
2023/12/12 05:05:31;;;;;;;1.70;1.17;;;;;;;-145.69;66.82;52325.56;4935218;29;20204;-81
2023/12/12 05:07:57;;;;;;;2.07;1.10;;;;;;;-145.69;66.69;52323.59;4927516;29;20591;-81
2023/12/12 05:10:24;;;;;;;1.90;1.20;;;;;;;-145.69;66.77;52305.75;4926787;29;20207;-81
2023/12/12 05:12:52;;;;;;;5.33;0.93;;;;;;;-145.69;68.22;52309.72;4935332;29;20210;-81
2023/12/12 05:15:18;;;;;;;1.77;1.17;;;;;;;-145.69;67.52;52289.91;4935166;29;20203;-81
2023/12/12 05:17:45;;;;;;;2.83;1.17;;;;;;;-145.69;66.79;52270.13;4935290;29;20228;-81
2023/12/12 05:20:13;;;;;;;1.40;1.30;;;;;;;-145.69;67.38;52321.59;4934618;29;20215;-82
2023/12/12 05:22:40;;;;;;;2.93;1.40;;;;;;;-145.69;67.97;52305.75;4934918;29;20229;-80
2023/12/12 05:25:07;;;;;;;1.87;1.30;;;;;;;-145.69;67.98;52305.75;4926733;29;20208;-81
2023/12/12 05:27:34;;;;;;;2.17;1.50;;;;;;;-145.69;67.41;52315.66;4916324;29;20215;-81
2023/12/12 05:30:01;;;;;;;2.07;1.53;;;;;;;-145.69;68.21;52325.56;4920812;29;20196;-81
2023/12/12 05:32:28;;;;;;;2.60;1.27;;;;;;;-145.69;69.43;52317.66;4935095;29;20215;-81
2023/12/12 05:34:54;;;;;;;3.10;1.60;;;;;;;-145.69;68.71;52282.00;4935219;29;20203;-81
2023/12/12 05:37:21;;;;;;;1.60;1.50;;;;;;;-145.69;68.56;52325.56;4935082;29;20203;-81
2023/12/12 05:39:47;;;;;;;2.30;1.63;;;;;;;-145.69;68.68;52325.56;4934859;29;20219;-81
2023/12/12 05:42:14;;;;;;;2.67;1.40;;;;;;;-145.69;68.16;52325.56;4933951;29;20732;-82
2023/12/12 05:44:40;;;;;;;6.90;1.60;;;;;;;-145.69;68.72;52282.00;4934925;29;20226;-82
2023/12/12 05:47:09;;;;;;;2.60;1.50;;;;;;;-145.69;68.47;52319.63;4938213;29;20206;-81
2023/12/12 05:49:35;;;;;;;1.70;1.40;;;;;;;-145.69;68.62;52317.66;4937440;29;20215;-81
2023/12/12 05:52:04;;;;;;;2.40;1.53;;;;;;;-145.69;68.13;52305.75;4919166;29;20208;-82
2023/12/12 05:54:30;;;;;;;1.90;1.17;;;;;;;-145.69;68.09;52345.38;4919330;29;20208;-81
2023/12/12 05:56:57;;;;;;;2.23;1.37;;;;;;;-145.69;67.67;52297.84;4919418;29;20208;-81
2023/12/12 05:59:23;;;;;;;3.43;1.20;;;;;;;-145.69;68.26;52307.75;4929837;29;20231;-82
2023/12/12 06:01:50;;;;;;;2.10;1.40;;;;;;;-145.69;68.87;52282.00;4938134;29;20207;-81
2023/12/12 06:04:18;;;;;;;1.83;1.40;;;;;;;-145.69;69.14;52278.03;4938290;29;20295;-81
2023/12/12 06:06:45;;;;;;;1.70;1.33;;;;;;;-145.69;69.01;52309.72;4937707;29;20215;-81
2023/12/12 06:09:12;;;;;;;5.83;1.60;;;;;;;-145.69;68.78;52309.72;4929327;29;20231;-82
2023/12/12 06:11:39;;;;;;;1.30;1.20;;;;;;;-145.69;68.57;52282.00;4919047;29;20222;-80
2023/12/12 06:14:06;;;;;;;2.73;1.50;;;;;;;-145.69;68.56;52299.81;4918752;29;20215;-80
2023/12/12 06:16:34;;;;;;;3.00;1.40;;;;;;;-145.69;68.12;52282.00;4927549;29;20203;-80
2023/12/12 06:19:04;;;;;;;1.43;1.33;;;;;;;-145.69;68.65;52307.75;4936929;29;20228;-81
2023/12/12 06:21:33;;;;;;;0.80;0.80;;;;;;;-145.69;68.04;52276.06;4937713;29;20682;-81
2023/12/12 06:24:00;;;;;;;1.70;1.30;;;;;;;-145.69;68.29;52287.94;4937892;29;20212;-82
2023/12/12 06:26:26;;;;;;;1.87;1.20;;;;;;;-145.69;68.91;52303.78;4937569;29;20210;-81
2023/12/12 06:28:53;;;;;;;0.70;0.70;;;;;;;-145.69;68.12;52309.72;4936664;29;20200;-81
2023/12/12 06:31:20;;;;;;;1.47;1.00;;;;;;;-145.69;68.15;52285.97;4937723;29;20204;-82
2023/12/12 06:33:47;;;;;;;1.67;1.03;;;;;;;-145.69;68.47;52276.06;4923217;29;20212;-82
2023/12/12 06:36:13;;;;;;;1.37;1.00;;;;;;;-145.69;68.20;52272.09;4925722;29;20218;-82
2023/12/12 06:38:42;;;;;;;3.63;3.10;;;;;;;-145.69;67.77;52278.03;4937342;29;20223;-81
2023/12/12 06:41:10;;;;;;;2.50;2.10;;;;;;;-145.69;68.25;52276.06;4937256;29;20204;-80
2023/12/12 06:43:36;;;;;;;3.87;3.13;;;;;;;-145.69;68.27;52270.13;4937468;29;20208;-81
2023/12/12 06:46:03;;;;;;;1.30;1.20;;;;;;;-145.69;68.42;52285.97;4937344;29;20666;-81
2023/12/12 06:48:29;;;;;;;0.93;0.90;;;;;;;-145.69;68.07;52274.06;4937030;29;20203;-81
2023/12/12 06:50:56;;;;;;;2.10;0.90;;;;;;;-145.69;68.25;52301.81;4907572;29;20243;-81
2023/12/12 06:53:23;;;;;;;1.20;1.10;;;;;;;-145.69;67.54;52291.91;4917778;29;20208;-80
2023/12/12 06:55:51;;;;;;;1.70;1.07;;;;;;;-145.69;68.36;52299.81;4918057;29;20199;-82
2023/12/12 06:58:17;;;;;;;1.00;0.90;;;;;;;-145.69;67.77;52307.75;4928932;29;20249;-80
2023/12/12 07:00:44;;;;;;;2.10;1.00;;;;;;;-145.69;67.76;52293.88;4936642;29;20211;-80
2023/12/12 07:03:11;;;;;;;1.00;0.90;;;;;;;-145.69;66.91;52274.06;4937245;29;20204;-80
2023/12/12 07:05:37;;;;;;;0.80;0.80;;;;;;;-145.69;66.69;52278.03;4937149;29;20208;-81
2023/12/12 07:08:04;;;;;;;1.13;0.90;;;;;;;-145.69;66.99;52264.16;4928888;29;20744;-80
2023/12/12 07:10:31;;;;;;;1.20;1.00;;;;;;;-145.69;67.99;52297.84;4936662;29;20211;-81
2023/12/12 07:12:59;;;;;;;0.97;0.83;;;;;;;-145.69;66.93;52230.50;4936873;29;20619;-80
2023/12/12 07:15:25;;;;;;;1.10;1.00;;;;;;;-145.69;67.00;52285.97;4936848;29;20204;-81
2023/12/12 07:17:53;;;;;;;0.73;0.73;;;;;;;-145.69;67.57;52297.84;4936284;29;20306;-80
2023/12/12 07:20:19;;;;;;;1.23;0.70;;;;;;;-145.69;67.17;52250.31;4936910;29;20286;-81
2023/12/12 07:22:46;;;;;;;1.30;0.90;;;;;;;-145.69;66.27;52248.34;4936745;29;20226;-80
2023/12/12 07:25:13;;;;;;;0.83;0.83;;;;;;;-145.69;66.08;52285.97;4919321;29;20219;-81
2023/12/12 07:27:39;;;;;;;0.60;0.60;;;;;;;-145.69;66.21;52262.19;4922635;29;20215;-81
2023/12/12 07:30:09;;;;;;;1.20;1.00;;;;;;;-145.69;65.85;52305.75;4926648;29;20226;-81
2023/12/12 07:32:36;;;;;;;11.00;3.37;;;;;;;-145.69;66.11;52264.16;4937040;29;20255;-81
2023/12/12 07:35:02;;;;;;;25.10;9.47;;;;;;;-145.69;65.91;52238.44;4936197;29;20222;-81
2023/12/12 07:37:29;;;;;;;4.33;1.90;;;;;;;-145.69;65.64;52254.28;4936086;29;20203;-81
2023/12/12 07:39:55;;;;;;;3.07;1.50;;;;;;;-145.69;66.10;52240.41;4936351;29;20231;-81
2023/12/12 07:42:22;;;;;;;1.40;1.10;;;;;;;-145.69;65.38;52234.47;4935228;29;20208;-80
2023/12/12 07:44:49;;;;;;;1.13;1.00;;;;;;;-145.69;64.83;52266.16;4936319;29;20203;-80
2023/12/12 07:47:17;;;;;;;1.50;0.90;;;;;;;-145.69;65.01;52240.41;4935678;29;20207;-81
2023/12/12 07:49:43;;;;;;;1.47;0.90;;;;;;;-145.69;64.09;52278.03;4936219;29;20199;-82
2023/12/12 07:52:09;;;;;;;1.03;0.87;;;;;;;-145.69;64.43;52274.06;4936125;29;20207;-82
2023/12/12 07:54:37;;;;;;;1.77;1.10;;;;;;;-145.69;64.26;52262.19;4935895;29;20226;-81
2023/12/12 07:57:05;;;;;;;1.00;0.90;;;;;;;-145.69;64.30;52285.97;4935341;29;20290;-81
2023/12/12 07:59:31;;;;;;;0.80;0.80;;;;;;;-145.69;64.46;52258.22;4917156;29;20243;-82
2023/12/12 08:01:59;;;;;;;1.17;0.83;;;;;;;-145.69;65.27;52291.91;4917032;29;20208;-82
2023/12/12 08:04:27;;;;;;;1.07;0.87;;;;;;;-145.69;64.29;52264.16;4916010;29;20660;-82
2023/12/12 08:06:54;;;;;;;0.90;0.90;;;;;;;-145.69;64.77;52240.41;4916809;29;20567;-81
2023/12/12 08:09:21;;;;;;;0.70;0.70;;;;;;;-145.69;64.41;52254.28;4934240;29;20240;-82
2023/12/12 08:11:47;;;;;;;1.43;1.33;;;;;;;-145.69;64.74;52258.22;4936061;29;20215;-82
2023/12/12 08:14:14;;;;;;;0.83;0.83;;;;;;;-145.69;64.86;52228.53;4933952;29;20204;-82
2023/12/12 08:16:40;;;;;;;0.90;0.90;;;;;;;-145.69;64.16;52274.06;4920271;29;20208;-81
2023/12/12 08:19:07;;;;;;;1.00;0.90;;;;;;;-145.69;64.51;52258.22;4934850;29;20355;-82
2023/12/12 08:21:35;;;;;;;0.60;0.60;;;;;;;-145.69;64.95;52274.06;4935872;29;20230;-83
2023/12/12 08:24:03;;;;;;;1.40;0.70;;;;;;;-145.69;64.48;52268.13;4935677;29;20225;-81
2023/12/12 08:26:29;;;;;;;1.20;1.10;;;;;;;-145.69;63.92;52256.25;4935588;29;20235;-81
2023/12/12 08:28:56;;;;;;;0.80;0.80;;;;;;;-145.69;64.26;52256.25;4934947;29;20211;-81
2023/12/12 08:31:23;;;;;;;1.10;1.10;;;;;;;-145.69;63.56;52258.22;4932921;29;20666;-81
2023/12/12 08:33:49;;;;;;;1.40;1.30;;;;;;;-145.69;64.07;52242.38;4916757;29;20636;-82
2023/12/12 08:36:16;;;;;;;0.80;0.80;;;;;;;-145.69;63.24;52260.22;4921294;29;20204;-81
2023/12/12 08:38:47;;;;;;;1.30;0.80;;;;;;;-145.69;63.01;52226.53;4935448;29;20230;-81
2023/12/12 08:41:13;;;;;;;1.17;0.77;;;;;;;-145.69;62.00;52266.16;4935746;29;20199;-81
2023/12/12 08:43:40;;;;;;;1.10;1.00;;;;;;;-145.69;62.44;52285.97;4935643;29;20220;-81
2023/12/12 08:46:07;;;;;;;0.73;0.73;;;;;;;-145.69;62.84;52246.34;4920131;29;20200;-81
2023/12/12 08:48:33;;;;;;;0.80;0.80;;;;;;;-145.69;61.99;52252.28;4930799;29;20208;-81
2023/12/12 08:51:00;;;;;;;0.57;0.57;;;;;;;-145.69;62.44;52258.22;4916321;29;20208;-81
2023/12/12 08:53:26;;;;;;;0.70;0.70;;;;;;;-145.69;62.31;52258.22;4916673;29;20210;-82
2023/12/12 08:55:55;;;;;;;1.23;1.13;;;;;;;-145.69;61.59;52258.22;4930068;29;20238;-80
2023/12/12 08:58:22;;;;;;;1.30;1.20;;;;;;;-145.69;62.20;52234.47;4933809;29;20211;-81
2023/12/12 09:00:49;;;;;;;0.70;0.70;;;;;;;-145.69;61.75;52282.00;4934358;29;20207;-81
2023/12/12 09:03:15;;;;;;;3.40;1.60;;;;;;;-145.69;61.43;52242.38;4934942;29;20211;-81
2023/12/12 09:05:42;;;;;;;0.60;0.60;;;;;;;-145.69;62.56;52226.53;4935097;29;20289;-81
2023/12/12 09:08:08;;;;;;;0.53;0.53;;;;;;;-145.69;62.55;52262.19;4935172;29;20235;-81
2023/12/12 09:10:36;;;;;;;0.77;0.77;;;;;;;-145.69;63.06;52264.16;4935351;29;20211;-81
2023/12/12 09:13:04;;;;;;;0.90;0.90;;;;;;;-145.69;62.79;52262.19;4923596;29;20201;-80
2023/12/12 09:15:31;;;;;;;1.30;0.70;;;;;;;-145.69;62.78;52256.25;4919616;29;20681;-80
2023/12/12 09:17:58;;;;;;;0.60;0.60;;;;;;;-145.69;62.67;52262.19;4935205;29;20207;-80
2023/12/12 09:20:25;;;;;;;0.87;0.77;;;;;;;-145.69;62.60;52246.34;4935189;29;20255;-79
2023/12/12 09:22:51;;;;;;;0.87;0.80;;;;;;;-145.69;61.94;52254.28;4938396;29;20199;-80
2023/12/12 09:25:18;;;;;;;0.70;0.70;;;;;;;-145.69;62.46;52242.38;4939042;29;20215;-78
2023/12/12 09:27:44;;;;;;;0.67;0.67;;;;;;;-145.69;62.51;52266.16;4938965;29;20204;-81
2023/12/12 09:30:12;;;;;;;0.70;0.70;;;;;;;-145.69;62.44;52250.31;4938500;29;20281;-81
2023/12/12 09:32:39;;;;;;;0.80;0.80;;;;;;;-145.69;62.38;52254.28;4938692;29;20242;-80
2023/12/12 09:35:06;;;;;;;0.52;0.52;;;;;;;-145.69;62.51;52262.19;4938343;29;20662;-80
2023/12/12 09:37:32;;;;;;;0.83;0.80;;;;;;;-145.69;62.84;52250.31;4938531;29;20203;-80
2023/12/12 09:40:01;;;;;;;0.60;0.60;;;;;;;-145.69;62.42;52236.44;4938304;29;20223;-81
2023/12/12 09:42:32;;;;;;;7.00;1.50;;;;;;;-145.69;63.37;52268.13;4938741;29;20203;-81
2023/12/12 09:45:00;;;;;;;0.65;0.55;;;;;;;-145.69;63.34;52218.63;4938396;29;20758;-80
2023/12/12 09:47:29;;;;;;;0.70;0.70;;;;;;;-145.69;63.57;52246.34;4938207;29;20204;-81
2023/12/12 09:49:56;;;;;;;1.10;1.00;;;;;;;-145.69;64.08;52242.38;4937844;29;20266;-81
2023/12/12 09:52:24;;;;;;;1.08;0.80;;;;;;;-145.69;64.01;52258.22;4938523;29;20200;-81
2023/12/12 09:54:50;;;;;;;0.60;0.60;;;;;;;-145.69;64.98;52244.38;4938359;29;20210;-80
2023/12/12 09:57:19;;;;;;;3.20;1.00;;;;;;;-145.69;64.38;52246.34;4938345;29;20627;-81
2023/12/12 09:59:46;;;;;;;3.07;0.80;;;;;;;-145.69;63.65;52258.22;4937589;29;20258;-80
2023/12/12 10:02:23;;;;;;;0.60;0.60;;;;;;;-145.69;64.51;52250.31;4938444;29;20207;-80
2023/12/12 10:04:52;;;;;;;2.93;0.70;;;;;;;-145.69;64.94;52230.50;4938296;29;20210;-82
2023/12/12 10:07:19;;;;;;;1.33;0.70;;;;;;;-145.69;65.41;52268.13;4938089;29;20211;-81
2023/12/12 10:09:48;;;;;;;0.57;0.57;;;;;;;-145.69;65.48;52234.47;4937587;29;20214;-81
2023/12/12 10:12:14;;;;;;;0.60;0.60;;;;;;;-145.69;65.89;52258.22;4938051;29;20615;-80
2023/12/12 10:14:44;;;;;;;0.70;0.70;;;;;;;-145.69;65.29;52238.44;4937955;29;20227;-81
2023/12/12 10:17:12;;;;;;;0.77;0.60;;;;;;;-145.69;64.91;52266.16;4937989;29;20200;-79
2023/12/12 10:19:38;;;;;;;2.47;0.77;;;;;;;-145.69;65.04;52234.47;4937639;29;20231;-81
2023/12/12 10:22:06;;;;;;;1.00;0.90;;;;;;;-145.69;64.91;52250.31;4934830;29;20547;-80
2023/12/12 10:24:33;;;;;;;1.30;1.20;;;;;;;-145.69;65.16;52242.38;4937866;29;20207;-80
2023/12/12 10:26:59;;;;;;;1.23;1.00;;;;;;;-145.69;64.80;52264.16;4937372;29;20199;-80
2023/12/12 10:29:26;;;;;;;1.20;1.10;;;;;;;-145.69;64.78;52226.53;4937680;29;20659;-80
2023/12/12 10:31:53;;;;;;;1.10;1.00;;;;;;;-145.69;64.64;52226.53;4936861;29;20210;-81
2023/12/12 10:34:23;;;;;;;1.05;0.98;;;;;;;-145.69;64.70;52254.28;4936395;29;20207;-81
2023/12/12 10:36:50;;;;;;;1.48;1.00;;;;;;;-145.69;64.81;52228.53;4937675;29;20207;-80
2023/12/12 10:39:17;;;;;;;0.73;0.73;;;;;;;-145.69;65.11;52252.28;4937379;29;20246;-80
2023/12/12 10:41:52;;;;;;;1.58;0.70;;;;;;;-145.69;64.73;52186.94;4937328;29;20211;-80
2023/12/12 10:44:21;;;;;;;1.63;0.95;;;;;;;-145.69;64.36;52232.50;4937273;29;20763;-80
2023/12/12 10:46:51;;;;;;;1.95;0.73;;;;;;;-145.69;64.24;52240.41;4937563;29;20255;-80
2023/12/12 10:49:20;;;;;;;2.30;0.75;;;;;;;-145.69;64.55;52218.63;4937156;29;20324;-80
2023/12/12 10:51:46;;;;;;;1.00;0.90;;;;;;;-145.69;63.72;52234.47;4937366;29;20271;-80
2023/12/12 10:54:15;;;;;;;0.60;0.60;;;;;;;-145.69;63.54;52206.75;4937103;29;20207;-80
2023/12/12 10:56:44;;;;;;;1.52;0.70;;;;;;;-145.69;63.85;52198.81;4937214;29;20567;-80
2023/12/12 10:59:12;;;;;;;2.08;1.10;;;;;;;-145.69;63.70;52222.59;4920412;29;20283;-80
2023/12/12 11:01:40;;;;;;;2.78;1.30;;;;;;;-145.69;63.71;52194.88;4918180;29;20208;-79
2023/12/12 11:04:08;;;;;;;1.75;1.23;;;;;;;-145.69;63.67;52218.63;4918176;29;20212;-79
2023/12/12 11:06:35;;;;;;;1.15;1.00;;;;;;;-145.69;63.66;52216.66;4917992;29;20204;-80
2023/12/12 11:09:01;;;;;;;2.95;0.90;;;;;;;-145.69;62.97;52210.72;4917675;29;20243;-80
2023/12/12 11:11:28;;;;;;;0.50;0.50;;;;;;;-145.69;63.19;52234.47;4918094;29;20204;-79
2023/12/12 11:14:00;;;;;;;0.80;0.70;;;;;;;-145.69;63.16;52198.81;4928202;29;20262;-79
2023/12/12 11:16:28;;;;;;;1.00;0.90;;;;;;;-145.69;63.12;52230.50;4936993;29;20208;-79